Time;durP1;ratioP1;P1;durP2;ratioP2;P2;SDS_P1;SDS_P2;PMS_P1;PMS_P2;Temp;Humidity;BMP_temperature;BMP_pressure;BME280_temperature;BME280_humidity;BME280_pressure;Samples;Min_cycle;Max_cycle;Signal;HPM_P1;HPM_P2
2022/05/31 00:00:11;;;;;;;2.73;2.40;;;;;;;9.76;85.17;97776.72;5103143;28;20316;-66
2022/05/31 00:02:40;;;;;;;2.40;2.20;;;;;;;9.75;85.46;97760.97;5102491;28;20214;-68
2022/05/31 00:05:09;;;;;;;2.67;2.10;;;;;;;9.72;85.87;97763.84;5099476;28;20223;-66
2022/05/31 00:07:36;;;;;;;2.27;2.07;;;;;;;9.74;85.63;97764.56;5099983;28;20258;-66
2022/05/31 00:10:03;;;;;;;2.73;2.20;;;;;;;9.72;85.82;97762.03;5103510;28;20587;-66
2022/05/31 00:12:29;;;;;;;2.53;2.33;;;;;;;9.74;85.39;97767.22;5104641;28;20216;-66
2022/05/31 00:14:56;;;;;;;5.13;2.07;;;;;;;9.75;85.46;97766.25;5107086;28;20238;-65
2022/05/31 00:17:22;;;;;;;2.33;2.13;;;;;;;9.74;85.20;97764.56;5105539;28;20220;-65
2022/05/31 00:19:50;;;;;;;2.47;2.27;;;;;;;9.70;85.52;97771.00;5106757;28;20271;-66
2022/05/31 00:22:19;;;;;;;2.20;2.00;;;;;;;9.68;86.03;97771.13;5102179;28;20287;-66
2022/05/31 00:24:46;;;;;;;2.83;2.30;;;;;;;9.65;86.53;97762.56;5099628;28;20242;-66
2022/05/31 00:27:16;;;;;;;2.50;2.27;;;;;;;9.68;86.66;97759.72;5099336;28;20218;-67
2022/05/31 00:29:44;;;;;;;2.60;2.03;;;;;;;9.67;86.57;97758.88;5103249;28;20202;-66
2022/05/31 00:32:13;;;;;;;2.50;2.00;;;;;;;9.66;86.80;97751.91;5109456;28;20225;-66
2022/05/31 00:34:45;;;;;;;2.17;1.97;;;;;;;9.60;87.27;97756.81;5099892;28;20211;-66
2022/05/31 00:37:14;;;;;;;2.57;2.37;;;;;;;9.55;87.57;97751.00;5100301;28;20591;-66
2022/05/31 00:39:40;;;;;;;2.43;2.00;;;;;;;9.49;88.39;97754.91;5103002;28;20241;-68
2022/05/31 00:42:09;;;;;;;2.63;2.43;;;;;;;9.47;87.90;97745.41;5100935;28;20221;-68
2022/05/31 00:44:37;;;;;;;2.30;2.10;;;;;;;9.48;88.45;97749.75;5097796;28;20235;-66
2022/05/31 00:47:06;;;;;;;2.83;2.40;;;;;;;9.47;88.76;97753.31;5099923;28;20216;-66
2022/05/31 00:49:35;;;;;;;2.60;2.40;;;;;;;9.46;89.03;97749.00;5103273;28;20214;-66
2022/05/31 00:52:07;;;;;;;3.23;2.30;;;;;;;9.50;88.75;97740.78;5100185;28;20242;-66
2022/05/31 00:54:39;;;;;;;3.83;2.30;;;;;;;9.46;89.25;97743.72;5099493;28;20210;-68
2022/05/31 00:57:06;;;;;;;3.67;2.47;;;;;;;9.43;89.35;97738.69;5101685;28;20232;-66
2022/05/31 00:59:37;;;;;;;2.27;2.07;;;;;;;9.40;88.87;97745.03;5107167;28;20240;-67
2022/05/31 01:02:05;;;;;;;2.60;2.40;;;;;;;9.34;88.57;97742.81;5103925;28;20729;-66
2022/05/31 01:04:35;;;;;;;2.83;2.00;;;;;;;9.33;89.08;97749.03;5106937;28;20567;-66
2022/05/31 01:07:02;;;;;;;3.10;2.23;;;;;;;9.29;88.59;97746.72;5107482;28;20222;-66
2022/05/31 01:09:30;;;;;;;2.97;2.20;;;;;;;9.25;87.83;97755.81;5104738;28;20254;-66
2022/05/31 01:11:58;;;;;;;2.33;2.03;;;;;;;9.19;88.03;97745.69;5103584;28;20222;-66
2022/05/31 01:14:26;;;;;;;3.17;2.10;;;;;;;9.25;86.66;97750.53;5099484;28;20218;-66
2022/05/31 01:16:56;;;;;;;2.40;2.10;;;;;;;9.25;85.92;97753.16;5104735;28;20206;-66
2022/05/31 01:22:08;;;;;;;2.43;2.23;;;;;;;9.15;84.81;97755.59;5103026;28;20224;-65
2022/05/31 01:24:45;;;;;;;2.30;2.10;;;;;;;9.11;84.54;97748.03;5105382;28;20550;-65
2022/05/31 01:27:18;;;;;;;4.03;2.20;;;;;;;9.09;84.42;97747.25;5105642;28;20225;-65
2022/05/31 01:29:47;;;;;;;2.40;2.10;;;;;;;9.08;84.77;97753.50;5108715;28;20201;-66
2022/05/31 01:32:13;;;;;;;4.53;2.50;;;;;;;9.00;85.37;97753.19;5110182;28;20233;-66
2022/05/31 01:34:47;;;;;;;2.63;2.10;;;;;;;8.89;86.66;97753.06;5106923;28;20206;-66
2022/05/31 01:37:15;;;;;;;2.37;2.10;;;;;;;8.80;86.89;97744.00;5102083;28;20252;-66
2022/05/31 01:39:46;;;;;;;2.43;2.17;;;;;;;8.76;86.93;97754.84;5102625;28;20238;-66
2022/05/31 01:42:17;;;;;;;2.93;2.20;;;;;;;8.73;86.95;97747.13;5104223;28;20206;-68
2022/05/31 01:44:49;;;;;;;4.37;2.30;;;;;;;8.70;86.87;97747.38;5106622;28;20249;-66
2022/05/31 01:47:16;;;;;;;2.40;2.20;;;;;;;8.70;86.72;97752.63;5102695;28;20210;-65
2022/05/31 01:49:47;;;;;;;2.67;1.97;;;;;;;8.67;86.26;97744.94;5102559;28;20222;-65
2022/05/31 01:52:15;;;;;;;2.83;2.33;;;;;;;8.69;85.02;97740.41;5105553;28;20214;-65
2022/05/31 01:54:42;;;;;;;2.30;2.10;;;;;;;8.68;84.41;97736.06;5105530;28;20213;-67
2022/05/31 01:57:13;;;;;;;2.67;2.27;;;;;;;8.60;84.40;97744.50;5102153;28;20583;-67
2022/05/31 01:59:45;;;;;;;2.50;2.30;;;;;;;8.56;84.92;97739.56;5102256;28;20249;-65
2022/05/31 02:02:15;;;;;;;2.20;2.07;;;;;;;8.54;85.44;97744.06;5104141;28;20230;-67
2022/05/31 02:04:42;;;;;;;2.80;2.60;;;;;;;8.52;86.14;97745.97;5108115;28;20213;-66
2022/05/31 02:07:12;;;;;;;2.87;2.40;;;;;;;8.48;86.20;97757.66;5109681;28;20640;-65
2022/05/31 02:09:42;;;;;;;3.33;2.30;;;;;;;8.49;86.59;97748.78;5108984;28;20219;-65
2022/05/31 02:12:12;;;;;;;4.27;2.30;;;;;;;8.52;86.83;97743.34;5105646;28;20217;-66
2022/05/31 02:14:39;;;;;;;3.10;2.80;;;;;;;8.56;87.44;97745.66;5109020;28;20229;-65
2022/05/31 02:17:06;;;;;;;3.30;2.30;;;;;;;8.60;87.33;97741.88;5109326;28;20216;-67
2022/05/31 02:19:33;;;;;;;2.87;2.50;;;;;;;8.64;86.75;97739.88;5108127;28;20261;-67
2022/05/31 02:22:02;;;;;;;2.83;2.60;;;;;;;8.50;88.21;97739.97;5105757;28;20582;-67
2022/05/31 02:24:29;;;;;;;2.60;2.40;;;;;;;8.46;89.76;97749.84;5108702;28;20216;-66
2022/05/31 02:26:57;;;;;;;4.23;2.70;;;;;;;8.46;90.24;97741.13;5108623;28;20210;-66
2022/05/31 02:29:26;;;;;;;3.23;2.50;;;;;;;8.54;89.61;97744.94;5106687;28;20219;-65
2022/05/31 02:31:53;;;;;;;2.53;2.23;;;;;;;8.65;89.89;97749.47;5105175;28;20309;-65
2022/05/31 02:34:23;;;;;;;2.80;2.50;;;;;;;8.66;90.34;97743.25;5101819;28;20211;-65
2022/05/31 02:36:49;;;;;;;2.30;2.10;;;;;;;8.72;89.79;97737.56;5101369;28;20621;-66
2022/05/31 02:39:16;;;;;;;2.70;2.40;;;;;;;8.78;90.85;97739.78;5102753;28;20221;-65
2022/05/31 02:41:44;;;;;;;2.40;2.20;;;;;;;8.67;92.10;97735.25;5105298;28;20214;-66
2022/05/31 02:44:12;;;;;;;4.77;2.87;;;;;;;8.66;91.88;97737.97;5101783;28;20239;-66
2022/05/31 02:46:39;;;;;;;2.90;2.43;;;;;;;8.69;92.15;97735.16;5101319;28;20673;-65
2022/05/31 02:49:07;;;;;;;4.40;2.60;;;;;;;8.67;93.00;97735.25;5103187;28;20213;-66
2022/05/31 02:51:35;;;;;;;3.30;2.87;;;;;;;8.63;93.45;97738.19;5104668;28;20210;-66
2022/05/31 02:54:01;;;;;;;3.23;2.63;;;;;;;8.60;93.32;97746.28;5106643;28;20214;-65
2022/05/31 02:56:28;;;;;;;3.60;3.17;;;;;;;8.62;93.05;97744.41;5108616;28;20214;-66
2022/05/31 02:58:54;;;;;;;4.20;3.00;;;;;;;8.57;93.48;97741.25;5106923;28;20213;-65
2022/05/31 03:01:26;;;;;;;3.30;3.00;;;;;;;8.59;93.19;97747.25;5104456;28;20238;-66
2022/05/31 03:03:53;;;;;;;3.30;3.00;;;;;;;8.58;92.93;97754.28;5108151;28;20679;-65
2022/05/31 03:06:20;;;;;;;4.00;3.27;;;;;;;8.56;93.17;97744.84;5108159;28;20217;-65
2022/05/31 03:08:46;;;;;;;3.07;2.77;;;;;;;8.47;93.76;97745.44;5106662;28;20249;-65
2022/05/31 03:11:17;;;;;;;3.10;2.80;;;;;;;8.39;94.22;97745.94;5104496;28;20545;-66
2022/05/31 03:13:46;;;;;;;3.10;2.83;;;;;;;8.30;94.56;97743.06;5100690;28;20218;-66
2022/05/31 03:16:15;;;;;;;4.63;3.10;;;;;;;8.20;95.32;97747.28;5100815;28;20574;-65
2022/05/31 03:18:50;;;;;;;3.90;2.90;;;;;;;8.15;95.61;97744.88;5102937;28;20218;-66
2022/05/31 03:21:21;;;;;;;2.97;2.67;;;;;;;8.12;95.17;97741.59;5102074;28;20245;-65
2022/05/31 03:23:53;;;;;;;4.03;3.07;;;;;;;8.05;96.47;97748.22;5100544;28;20672;-65
2022/05/31 03:26:21;;;;;;;4.13;3.60;;;;;;;8.11;96.25;97748.69;5100823;28;20214;-66
2022/05/31 03:28:48;;;;;;;3.50;3.20;;;;;;;8.14;96.61;97748.47;5104404;28;20229;-65
2022/05/31 03:31:15;;;;;;;3.47;3.17;;;;;;;8.20;95.29;97752.53;5107502;28;20582;-65
2022/05/31 03:33:43;;;;;;;4.67;3.53;;;;;;;8.29;95.32;97751.91;5107652;28;20225;-65
2022/05/31 03:36:11;;;;;;;3.90;3.33;;;;;;;8.32;94.50;97751.72;5101006;28;20214;-66
2022/05/31 03:38:37;;;;;;;3.73;3.43;;;;;;;8.35;94.52;97748.88;5103579;28;20210;-66
2022/05/31 03:41:04;;;;;;;3.40;3.10;;;;;;;8.32;94.84;97751.72;5101905;28;20241;-67
2022/05/31 03:43:33;;;;;;;3.73;3.20;;;;;;;8.33;94.59;97759.50;5100350;28;20265;-67
2022/05/31 03:46:00;;;;;;;3.83;3.30;;;;;;;8.31;95.11;97752.66;5098721;28;20706;-65
2022/05/31 03:48:27;;;;;;;4.50;3.27;;;;;;;8.36;95.64;97754.06;5104019;28;20221;-66
2022/05/31 03:51:02;;;;;;;4.40;3.30;;;;;;;8.45;95.10;97744.69;5101729;28;20311;-67
2022/05/31 03:53:29;;;;;;;3.73;3.20;;;;;;;8.61;94.70;97745.34;5099908;28;20217;-66
2022/05/31 03:55:56;;;;;;;3.97;3.10;;;;;;;8.79;93.43;97741.47;5101302;28;20217;-65
2022/05/31 03:58:23;;;;;;;3.87;3.20;;;;;;;9.01;92.15;97746.97;5103615;28;20214;-66
2022/05/31 04:00:50;;;;;;;3.80;3.10;;;;;;;9.20;91.91;97742.09;5100308;28;20230;-66
2022/05/31 04:03:16;;;;;;;3.10;2.80;;;;;;;9.41;90.89;97741.44;5099820;28;20788;-66
2022/05/31 04:05:43;;;;;;;3.70;3.37;;;;;;;9.62;89.68;97745.16;5110048;28;20218;-65
2022/05/31 04:08:12;;;;;;;3.37;3.00;;;;;;;9.77;89.12;97744.09;5103666;28;20242;-65
2022/05/31 04:10:40;;;;;;;4.73;3.37;;;;;;;9.84;88.33;97741.84;5106516;28;20224;-65
2022/05/31 04:13:07;;;;;;;3.03;2.80;;;;;;;9.86;87.76;97734.66;5098325;28;20248;-65
2022/05/31 04:15:34;;;;;;;3.13;2.83;;;;;;;9.79;87.01;97736.06;5100654;28;20219;-65
2022/05/31 04:18:01;;;;;;;3.00;2.70;;;;;;;9.72;86.86;97740.09;5103220;28;20210;-66
2022/05/31 04:20:27;;;;;;;2.80;2.53;;;;;;;9.57;87.02;97735.91;5100695;28;20245;-65
2022/05/31 04:23:57;;;;;;;3.87;2.87;;;;;;;9.41;88.98;97736.16;5099714;28;20222;-66
2022/05/31 04:25:42;;;;;;;3.23;2.90;;;;;;;9.33;90.24;97737.63;5102589;28;20241;-65
2022/05/31 04:28:10;;;;;;;3.70;2.77;;;;;;;9.29;90.13;97736.16;5101807;28;20676;-66
2022/05/31 04:30:36;;;;;;;3.50;2.83;;;;;;;9.29;90.62;97741.44;5099356;28;20247;-66
2022/05/31 04:33:03;;;;;;;3.97;3.20;;;;;;;9.31;90.50;97744.81;5104107;28;20210;-66
2022/05/31 04:35:30;;;;;;;4.03;3.13;;;;;;;9.29;90.86;97736.16;5102728;28;20225;-65
2022/05/31 04:37:56;;;;;;;3.50;3.20;;;;;;;9.23;91.09;97731.34;5100683;28;20213;-65
2022/05/31 04:40:24;;;;;;;5.00;3.20;;;;;;;9.19;90.97;97720.16;5099078;28;20238;-66
2022/05/31 04:42:52;;;;;;;3.80;3.50;;;;;;;9.14;90.53;97716.16;5099391;28;20246;-67
2022/05/31 04:45:19;;;;;;;5.13;3.60;;;;;;;9.12;90.52;97715.44;5102748;28;20245;-67
2022/05/31 04:47:46;;;;;;;5.00;3.40;;;;;;;9.10;90.58;97719.94;5102042;28;20214;-65
2022/05/31 04:50:13;;;;;;;4.87;3.27;;;;;;;9.19;90.19;97725.41;5099425;28;20564;-67
2022/05/31 04:52:39;;;;;;;3.77;3.37;;;;;;;9.34;90.09;97718.22;5102861;28;20222;-65
2022/05/31 04:55:06;;;;;;;3.27;2.97;;;;;;;9.47;90.94;97725.16;5106086;28;20215;-65
2022/05/31 04:57:33;;;;;;;3.30;3.00;;;;;;;9.67;90.92;97721.13;5107111;28;20221;-66
2022/05/31 05:00:00;;;;;;;3.67;3.03;;;;;;;9.86;90.39;97718.81;5103342;28;20256;-66
2022/05/31 05:02:27;;;;;;;5.20;3.10;;;;;;;10.18;89.22;97725.25;5103473;28;20217;-66
2022/05/31 05:04:53;;;;;;;3.83;3.13;;;;;;;10.99;84.90;97725.13;5104181;28;20216;-65
2022/05/31 05:07:20;;;;;;;3.23;2.90;;;;;;;12.10;78.23;97717.97;5107308;28;20222;-65
2022/05/31 05:09:46;;;;;;;3.13;2.80;;;;;;;13.09;73.10;97704.22;5103152;28;20211;-65
2022/05/31 05:12:13;;;;;;;3.60;3.30;;;;;;;14.00;68.66;97713.75;5103271;28;20226;-66
2022/05/31 05:14:39;;;;;;;4.83;3.00;;;;;;;14.89;64.48;97725.00;5104913;28;20243;-67
2022/05/31 05:17:07;;;;;;;4.20;3.30;;;;;;;15.62;61.39;97725.09;5106718;28;20571;-65
2022/05/31 05:19:33;;;;;;;4.50;3.30;;;;;;;16.27;59.03;97721.22;5106657;28;20217;-66
2022/05/31 05:22:00;;;;;;;3.40;2.93;;;;;;;16.91;56.38;97708.50;5110360;28;20583;-66
2022/05/31 05:24:26;;;;;;;3.70;3.40;;;;;;;17.41;52.99;97717.56;5109222;28;20220;-66
2022/05/31 05:26:53;;;;;;;5.07;3.00;;;;;;;17.82;51.95;97716.78;5106528;28;20218;-67
2022/05/31 05:32:07;;;;;;;3.80;3.03;;;;;;;18.59;49.17;97703.94;5102772;28;20221;-65
2022/05/31 05:34:34;;;;;;;3.33;2.97;;;;;;;18.93;47.66;97704.63;5106383;28;20211;-65
2022/05/31 05:37:00;;;;;;;3.10;2.80;;;;;;;19.05;46.92;97711.31;5108359;28;20207;-65
2022/05/31 05:39:27;;;;;;;4.53;3.20;;;;;;;19.28;46.42;97706.97;5110283;28;20228;-66
2022/05/31 05:41:53;;;;;;;4.27;3.43;;;;;;;19.66;45.45;97706.22;5110325;28;20241;-65
2022/05/31 05:44:20;;;;;;;3.13;2.80;;;;;;;20.11;45.00;97701.00;5106877;28;20256;-66
2022/05/31 05:46:47;;;;;;;3.97;3.17;;;;;;;20.43;43.54;97697.31;5106970;28;20712;-66
2022/05/31 05:49:14;;;;;;;2.87;2.53;;;;;;;20.89;42.52;97704.38;5109881;28;20206;-66
2022/05/31 05:51:41;;;;;;;2.90;2.60;;;;;;;21.28;41.41;97700.50;5109946;28;20210;-66
2022/05/31 05:54:08;;;;;;;2.63;2.43;;;;;;;21.59;40.80;97693.13;5106482;28;20207;-66
2022/05/31 05:56:36;;;;;;;2.57;2.37;;;;;;;21.95;39.89;97704.00;5105084;28;20284;-66
2022/05/31 05:59:02;;;;;;;2.40;2.20;;;;;;;22.02;39.71;97700.38;5109532;28;20218;-66
2022/05/31 06:01:34;;;;;;;2.80;2.60;;;;;;;21.49;40.47;97697.09;5109608;28;20310;-66
2022/05/31 06:04:04;;;;;;;2.97;2.50;;;;;;;21.78;39.59;97702.53;5105972;28;20214;-66
2022/05/31 06:06:35;;;;;;;3.20;2.60;;;;;;;22.21;38.89;97701.66;5107592;28;20254;-66
2022/05/31 06:09:04;;;;;;;3.13;2.67;;;;;;;22.59;38.62;97708.53;5109722;28;20214;-66
2022/05/31 06:11:36;;;;;;;5.57;2.67;;;;;;;22.36;39.58;97710.53;5108897;28;20218;-66
2022/05/31 06:14:10;;;;;;;2.77;2.50;;;;;;;22.51;39.92;97720.28;5105842;28;20206;-66
2022/05/31 06:16:45;;;;;;;2.60;2.40;;;;;;;21.38;41.69;97711.84;5110425;28;20234;-66
2022/05/31 06:19:17;;;;;;;2.90;2.30;;;;;;;20.66;43.72;97715.09;5099825;28;20214;-65
2022/05/31 06:21:46;;;;;;;2.60;2.40;;;;;;;19.68;45.65;97714.91;5102397;28;20731;-65
2022/05/31 06:24:13;;;;;;;2.77;2.50;;;;;;;18.95;47.62;97716.00;5103496;28;20237;-66
2022/05/31 06:26:40;;;;;;;3.43;2.47;;;;;;;18.32;49.46;97714.09;5103404;28;20234;-66
2022/05/31 06:29:06;;;;;;;2.50;2.30;;;;;;;18.06;50.70;97714.19;5099672;28;20207;-65
2022/05/31 06:31:33;;;;;;;2.70;2.50;;;;;;;17.76;52.02;97712.06;5106158;28;20206;-65
2022/05/31 06:33:59;;;;;;;3.23;2.70;;;;;;;18.13;51.19;97712.53;5106021;28;20210;-65
2022/05/31 06:36:26;;;;;;;3.80;2.73;;;;;;;17.73;51.40;97717.72;5103107;28;20217;-66
2022/05/31 06:38:54;;;;;;;3.70;3.03;;;;;;;17.81;51.58;97715.06;5102309;28;20562;-66
2022/05/31 06:41:20;;;;;;;2.63;2.43;;;;;;;17.81;51.48;97720.41;5104920;28;20593;-66
2022/05/31 06:43:47;;;;;;;4.17;2.60;;;;;;;18.01;51.38;97721.00;5106326;28;20222;-66
2022/05/31 06:46:14;;;;;;;4.47;3.13;;;;;;;18.66;49.43;97715.66;5103124;28;20226;-66
2022/05/31 06:48:41;;;;;;;3.13;2.80;;;;;;;18.67;48.75;97712.00;5100070;28;20619;-66
2022/05/31 06:51:10;;;;;;;3.83;2.83;;;;;;;18.43;50.02;97727.19;5105042;28;20214;-68
2022/05/31 06:59:08;;;;;;;4.03;2.87;;;;;;;18.12;50.46;97718.03;5105782;28;20213;-65
2022/05/31 07:01:37;;;;;;;3.00;2.70;;;;;;;18.03;50.93;97719.84;5105046;28;20283;-65
2022/05/31 07:04:05;;;;;;;4.27;3.20;;;;;;;17.83;51.38;97713.09;5102255;28;20281;-65
2022/05/31 07:06:32;;;;;;;4.00;3.40;;;;;;;17.66;51.65;97715.84;5101718;28;20218;-65
2022/05/31 07:08:59;;;;;;;3.47;3.10;;;;;;;17.40;52.15;97710.53;5101237;28;20229;-65
2022/05/31 07:11:27;;;;;;;5.47;3.47;;;;;;;17.15;53.01;97715.84;5102200;28;20214;-65
2022/05/31 07:13:54;;;;;;;3.60;2.87;;;;;;;17.14;54.12;97706.16;5099016;28;20211;-65
2022/05/31 07:16:20;;;;;;;2.97;2.70;;;;;;;17.21;54.94;97705.38;5101177;28;20215;-66
2022/05/31 07:18:46;;;;;;;3.90;3.20;;;;;;;17.34;54.82;97704.94;5106441;28;20206;-65
2022/05/31 07:21:13;;;;;;;4.07;3.37;;;;;;;17.44;55.22;97701.19;5107323;28;20244;-66
2022/05/31 07:23:40;;;;;;;5.43;3.77;;;;;;;17.55;53.98;97686.75;5103649;28;20223;-66
2022/05/31 07:26:07;;;;;;;3.60;3.00;;;;;;;17.59;53.30;97693.41;5102405;28;20222;-66
2022/05/31 07:28:35;;;;;;;3.83;3.10;;;;;;;17.65;54.23;97698.97;5105702;28;20233;-65
2022/05/31 07:31:02;;;;;;;4.00;3.40;;;;;;;17.71;53.68;97698.34;5108453;28;20292;-66
2022/05/31 07:33:29;;;;;;;3.97;3.50;;;;;;;17.72;54.36;97693.81;5104178;28;20214;-68
2022/05/31 07:35:55;;;;;;;5.77;3.70;;;;;;;17.85;53.34;97692.38;5108020;28;20676;-66
2022/05/31 07:38:23;;;;;;;4.53;3.40;;;;;;;17.97;52.98;97688.41;5103409;28;20207;-66
2022/05/31 07:40:50;;;;;;;4.07;3.50;;;;;;;18.12;52.46;97686.78;5102077;28;20582;-66
2022/05/31 07:43:17;;;;;;;5.03;3.17;;;;;;;18.27;51.35;97698.50;5106463;28;20221;-65
2022/05/31 07:45:45;;;;;;;5.20;3.10;;;;;;;18.46;51.88;97698.25;5105531;28;20230;-65
2022/05/31 07:48:12;;;;;;;3.70;3.10;;;;;;;18.78;50.77;97703.63;5102980;28;20215;-66
2022/05/31 07:50:39;;;;;;;3.90;2.90;;;;;;;19.02;50.77;97692.91;5103938;28;20296;-65
2022/05/31 07:53:06;;;;;;;3.50;2.70;;;;;;;19.14;50.57;97694.22;5106227;28;20213;-65
2022/05/31 07:55:32;;;;;;;4.07;3.07;;;;;;;19.27;49.09;97697.25;5105921;28;20210;-64
2022/05/31 08:00:44;;;;;;;4.00;3.10;;;;;;;19.48;49.58;97684.16;5103240;28;20220;-68
2022/05/31 08:03:11;;;;;;;3.90;2.90;;;;;;;19.55;49.11;97698.53;5100555;28;20557;-70
2022/05/31 08:05:38;;;;;;;5.07;3.20;;;;;;;19.61;48.57;97687.13;5095674;28;20216;-69
2022/05/31 08:08:06;;;;;;;5.53;2.53;;;;;;;19.72;49.48;97692.13;5102618;28;20210;-68
2022/05/31 08:10:32;;;;;;;5.10;2.73;;;;;;;19.74;48.63;97683.91;5103633;28;20210;-71
2022/05/31 08:12:59;;;;;;;2.97;2.43;;;;;;;19.72;47.93;97692.13;5097118;28;20610;-71
2022/05/31 08:15:25;;;;;;;5.33;2.50;;;;;;;19.83;47.44;97685.53;5099951;28;20672;-71
2022/05/31 08:17:53;;;;;;;3.13;2.37;;;;;;;19.82;47.42;97681.19;5093411;28;20971;-71
2022/05/31 08:20:20;;;;;;;2.10;1.83;;;;;;;19.84;48.80;97671.94;5087141;28;20220;-72
2022/05/31 08:22:47;;;;;;;2.40;1.90;;;;;;;19.84;48.02;97674.63;5106443;28;20698;-71
2022/05/31 08:25:15;;;;;;;2.47;2.00;;;;;;;19.84;48.29;97680.00;5102401;28;20218;-67
2022/05/31 08:27:42;;;;;;;2.33;2.07;;;;;;;19.80;47.65;97670.63;5099089;28;20271;-66
2022/05/31 08:30:08;;;;;;;3.43;2.20;;;;;;;19.78;48.96;97675.34;5099761;28;20207;-68
2022/05/31 08:32:36;;;;;;;2.07;1.90;;;;;;;19.78;48.57;97667.28;5101956;28;20217;-68
2022/05/31 08:35:07;;;;;;;3.20;1.97;;;;;;;19.89;48.45;97668.75;5092899;28;20678;-68
2022/05/31 08:37:33;;;;;;;3.33;2.10;;;;;;;19.98;48.16;97665.84;5097086;28;20203;-67
2022/05/31 08:40:00;;;;;;;2.93;2.20;;;;;;;20.05;47.43;97661.44;5097384;28;20798;-69
2022/05/31 08:42:45;;;;;;;2.07;1.90;;;;;;;20.10;46.74;97656.41;5102106;28;20234;-69
2022/05/31 08:45:16;;;;;;;1.93;1.73;;;;;;;20.21;46.92;97656.03;5098857;28;20253;-68
2022/05/31 08:47:45;;;;;;;3.57;1.90;;;;;;;20.36;47.36;97656.09;5100512;28;20225;-69
2022/05/31 08:53:19;;;;;;;3.47;2.03;;;;;;;20.75;45.36;97665.69;5102713;28;20218;-69
2022/05/31 08:58:37;;;;;;;3.07;1.90;;;;;;;21.58;44.42;97659.19;5099953;28;20237;-69
2022/05/31 09:01:05;;;;;;;2.97;2.27;;;;;;;22.02;42.69;97657.34;5095882;28;20210;-69
2022/05/31 09:03:40;;;;;;;3.80;2.03;;;;;;;22.46;41.85;97668.00;5100953;28;20214;-68
2022/05/31 09:06:11;;;;;;;2.50;2.27;;;;;;;22.59;40.93;97666.28;5100647;28;20213;-68
2022/05/31 09:08:44;;;;;;;2.30;1.90;;;;;;;22.76;40.84;97670.41;5108189;28;20312;-68
2022/05/31 09:11:17;;;;;;;2.67;1.83;;;;;;;22.91;41.72;97671.13;5106106;28;20241;-68
2022/05/31 09:13:50;;;;;;;2.80;2.00;;;;;;;22.90;41.34;97668.63;5099320;28;20209;-68
2022/05/31 09:16:25;;;;;;;2.97;2.00;;;;;;;22.81;41.02;97670.63;5101231;28;20250;-71
2022/05/31 09:18:54;;;;;;;2.53;1.90;;;;;;;22.68;40.61;97670.50;5100442;28;20574;-69
2022/05/31 09:21:26;;;;;;;3.90;2.00;;;;;;;22.34;40.73;97669.50;5103955;28;20218;-69
2022/05/31 09:23:55;;;;;;;2.03;1.80;;;;;;;22.15;41.06;97673.63;5104944;28;20221;-71
2022/05/31 09:26:40;;;;;;;3.23;1.70;;;;;;;22.09;42.09;97669.00;5100861;28;20225;-70
2022/05/31 09:29:13;;;;;;;2.83;1.77;;;;;;;22.16;43.24;97666.38;5103783;28;20246;-70
2022/05/31 09:31:49;;;;;;;2.40;1.70;;;;;;;22.20;42.61;97668.50;5095608;28;20225;-69
2022/05/31 09:34:32;;;;;;;2.97;2.00;;;;;;;22.14;42.17;97665.75;5098154;28;20218;-70
2022/05/31 09:37:22;;;;;;;1.70;1.60;;;;;;;22.06;42.17;97663.97;5098584;28;20736;-69
2022/05/31 09:39:58;;;;;;;2.57;1.80;;;;;;;22.03;42.43;97660.84;5099538;28;20217;-70
2022/05/31 09:42:31;;;;;;;1.93;1.67;;;;;;;22.03;43.00;97659.00;5104113;28;20234;-70
2022/05/31 09:45:06;;;;;;;2.30;2.10;;;;;;;22.11;41.60;97666.09;5108012;28;20611;-70
2022/05/31 09:47:33;;;;;;;3.03;2.17;;;;;;;21.96;41.27;97662.63;5107399;28;20225;-71
2022/05/31 09:49:59;;;;;;;5.07;2.10;;;;;;;21.70;41.75;97663.09;5106372;28;20217;-69
2022/05/31 09:52:33;;;;;;;3.73;2.50;;;;;;;21.76;42.55;97662.34;5103119;28;20268;-69
2022/05/31 09:57:54;;;;;;;2.53;2.07;;;;;;;22.33;42.42;97655.22;5101740;28;20225;-70
2022/05/31 10:00:21;;;;;;;5.00;2.00;;;;;;;22.60;41.91;97654.47;5103657;28;20214;-69
2022/05/31 10:03:02;;;;;;;5.90;2.07;;;;;;;22.89;41.52;97645.41;5098394;28;20731;-69
2022/05/31 10:05:29;;;;;;;3.33;2.00;;;;;;;22.96;40.62;97647.13;5099919;28;20222;-68
2022/05/31 10:07:57;;;;;;;3.87;1.80;;;;;;;23.09;40.27;97647.25;5104197;28;20210;-70
2022/05/31 10:10:31;;;;;;;2.83;1.90;;;;;;;23.17;40.06;97649.81;5105539;28;20217;-68
2022/05/31 10:13:00;;;;;;;2.33;1.90;;;;;;;23.12;38.12;97641.47;5108373;28;20679;-69
2022/05/31 10:15:41;;;;;;;1.93;1.73;;;;;;;23.11;38.66;97642.47;5107739;28;20217;-69
2022/05/31 10:18:10;;;;;;;3.53;2.00;;;;;;;22.97;40.11;97639.91;5105581;28;20221;-72
2022/05/31 10:20:41;;;;;;;2.90;1.90;;;;;;;22.89;39.94;97635.47;5107009;28;20291;-73
2022/05/31 10:23:13;;;;;;;2.30;1.70;;;;;;;22.78;39.42;97633.31;5108172;28;20729;-73
2022/05/31 10:25:42;;;;;;;2.70;1.70;;;;;;;22.77;39.55;97626.25;5104717;28;20211;-73
2022/05/31 10:28:15;;;;;;;2.97;2.27;;;;;;;22.64;39.88;97638.75;5106854;28;20597;-70
2022/05/31 10:30:41;;;;;;;2.40;2.20;;;;;;;22.64;40.86;97627.97;5108345;28;20210;-69
2022/05/31 10:33:11;;;;;;;3.37;2.00;;;;;;;22.84;40.28;97637.91;5103749;28;20215;-67
2022/05/31 10:35:40;;;;;;;2.83;1.90;;;;;;;22.90;40.15;97637.13;5103741;28;20330;-68
2022/05/31 10:38:24;;;;;;;3.17;2.27;;;;;;;22.66;40.85;97629.47;5099885;28;20672;-70
2022/05/31 10:40:54;;;;;;;3.70;2.10;;;;;;;22.66;39.62;97640.22;5099805;28;20214;-70
2022/05/31 10:43:33;;;;;;;2.57;1.70;;;;;;;22.71;40.00;97636.94;5103909;28;20230;-70
2022/05/31 10:46:06;;;;;;;3.40;2.10;;;;;;;22.60;38.00;97635.63;5106441;28;20214;-68
2022/05/31 10:48:36;;;;;;;2.83;1.90;;;;;;;22.40;39.01;97642.63;5107223;28;20210;-68
2022/05/31 10:51:09;;;;;;;2.73;2.03;;;;;;;22.23;40.06;97638.50;5105225;28;20210;-67
2022/05/31 10:53:55;;;;;;;3.80;2.40;;;;;;;22.19;38.77;97642.59;5105627;28;20219;-68
2022/05/31 10:56:30;;;;;;;2.27;1.83;;;;;;;22.23;39.49;97643.91;5107881;28;20210;-69
2022/05/31 10:59:00;;;;;;;3.00;1.87;;;;;;;22.29;38.36;97642.28;5104741;28;20304;-70
2022/05/31 11:01:40;;;;;;;2.47;1.90;;;;;;;22.37;38.48;97634.94;5105226;28;20225;-67
2022/05/31 11:04:23;;;;;;;4.33;1.77;;;;;;;22.64;38.84;97646.84;5107679;28;20572;-68
2022/05/31 11:07:00;;;;;;;4.37;2.00;;;;;;;22.64;39.34;97642.28;5104676;28;20215;-69
2022/05/31 11:12:36;;;;;;;4.20;2.40;;;;;;;22.82;37.78;97639.97;5104997;28;20217;-72
2022/05/31 11:15:14;;;;;;;2.60;2.10;;;;;;;22.75;38.05;97643.63;5103332;28;20233;-68
2022/05/31 11:18:05;;;;;;;4.03;1.80;;;;;;;22.66;38.38;97648.31;5098777;28;20702;-69
2022/05/31 11:20:38;;;;;;;2.03;1.70;;;;;;;22.58;38.29;97637.69;5101368;28;20215;-68
2022/05/31 11:23:19;;;;;;;2.67;1.83;;;;;;;22.62;38.36;97640.81;5101181;28;20234;-70
2022/05/31 11:26:05;;;;;;;4.33;1.70;;;;;;;22.80;38.82;97633.94;5098980;28;20217;-69
2022/05/31 11:28:42;;;;;;;2.10;1.70;;;;;;;23.11;37.19;97642.47;5102446;28;20295;-68
2022/05/31 11:31:24;;;;;;;2.13;1.60;;;;;;;22.94;35.84;97651.06;5104511;28;20342;-69
2022/05/31 11:34:04;;;;;;;3.10;1.80;;;;;;;23.00;35.43;97643.03;5103858;28;20218;-68
2022/05/31 11:36:41;;;;;;;1.93;1.53;;;;;;;22.78;35.73;97651.31;5103054;28;20215;-69
2022/05/31 11:39:31;;;;;;;2.37;1.87;;;;;;;22.75;35.37;97643.63;5108850;28;20218;-69
2022/05/31 11:42:10;;;;;;;3.37;2.10;;;;;;;22.80;34.93;97652.78;5104601;28;20218;-69
2022/05/31 11:44:49;;;;;;;1.90;1.67;;;;;;;22.87;35.40;97650.97;5101433;28;20466;-69
2022/05/31 11:47:32;;;;;;;3.10;1.40;;;;;;;22.98;34.71;97660.44;5099857;28;20210;-69
2022/05/31 11:50:06;;;;;;;2.33;1.40;;;;;;;23.13;34.02;97640.44;5101780;28;20226;-69
2022/05/31 11:52:48;;;;;;;1.97;1.37;;;;;;;23.28;34.58;97641.19;5103514;28;20211;-69
2022/05/31 11:55:26;;;;;;;2.20;1.30;;;;;;;23.18;34.11;97648.81;5099900;28;20230;-69
2022/05/31 11:58:05;;;;;;;2.37;1.70;;;;;;;23.10;34.72;97653.47;5102097;28;20260;-69
2022/05/31 12:00:37;;;;;;;1.53;1.40;;;;;;;23.53;34.05;97653.19;5102331;28;20259;-71
2022/05/31 12:03:11;;;;;;;5.00;1.63;;;;;;;24.04;33.77;97651.84;5099354;28;20252;-69
2022/05/31 12:05:43;;;;;;;1.83;1.50;;;;;;;24.21;32.81;97653.13;5099350;28;20211;-69
2022/05/31 12:08:12;;;;;;;1.93;1.63;;;;;;;24.35;32.19;97646.75;5102966;28;20688;-69
2022/05/31 12:10:43;;;;;;;2.50;1.40;;;;;;;24.14;31.93;97649.56;5100280;28;20211;-68
2022/05/31 12:13:12;;;;;;;1.53;1.30;;;;;;;23.97;32.33;97647.44;5099227;28;20689;-69